createdAt,value
2023-05-10T00:01:39.818Z,23
2023-05-10T00:04:10.615Z,21
2023-05-10T00:06:40.908Z,17
2023-05-10T00:09:10.825Z,22
2023-05-10T00:11:41.257Z,20
2023-05-10T00:14:11.635Z,23
2023-05-10T00:16:42.069Z,24
2023-05-10T00:19:12.686Z,24
2023-05-10T00:21:43.244Z,24
2023-05-10T00:24:14.296Z,20
2023-05-10T00:26:45.093Z,19
2023-05-10T00:29:15.626Z,20
2023-05-10T00:31:46.069Z,20
2023-05-10T00:34:16.296Z,21
2023-05-10T00:36:47.065Z,20
2023-05-10T00:39:17.443Z,21
2023-05-10T00:41:47.713Z,29
2023-05-10T00:44:17.834Z,27
2023-05-10T00:46:48.654Z,21
2023-05-10T00:49:18.994Z,18
2023-05-10T00:51:47.621Z,21
2023-05-10T00:54:17.633Z,20
2023-05-10T00:56:47.597Z,20
2023-05-10T00:59:18.000Z,23
2023-05-10T01:01:48.573Z,16
2023-05-10T01:04:19.448Z,20
2023-05-10T01:06:49.823Z,21
2023-05-10T01:09:20.028Z,19
2023-05-10T01:11:50.728Z,17
2023-05-10T01:14:20.520Z,20
2023-05-10T01:16:51.188Z,17
2023-05-10T01:19:21.396Z,20
2023-05-10T01:21:52.098Z,23
2023-05-10T01:24:22.766Z,18
2023-05-10T01:26:52.955Z,24
2023-05-10T01:29:23.352Z,16
2023-05-10T01:31:53.961Z,25
2023-05-10T01:34:24.089Z,21
2023-05-10T01:36:54.923Z,17
2023-05-10T01:39:25.021Z,20
2023-05-10T01:41:55.164Z,20
2023-05-10T01:44:25.573Z,20
2023-05-10T01:46:56.412Z,17
2023-05-10T01:49:27.230Z,20
2023-05-10T01:51:57.578Z,19
2023-05-10T01:54:28.375Z,21
2023-05-10T01:56:59.019Z,23
2023-05-10T01:59:29.680Z,24
2023-05-10T02:02:00.236Z,29
2023-05-10T02:04:30.893Z,29
2023-05-10T02:07:01.316Z,29
2023-05-10T02:09:30.600Z,36
2023-05-10T02:12:01.206Z,31
2023-05-10T02:14:31.648Z,44
2023-05-10T02:17:01.960Z,40
2023-05-10T02:19:32.211Z,29
2023-05-10T02:22:02.786Z,29
2023-05-10T02:24:33.234Z,27
2023-05-10T02:27:04.133Z,30
2023-05-10T02:29:34.215Z,25
2023-05-10T02:32:04.491Z,28
2023-05-10T02:34:34.702Z,20
2023-05-10T02:37:09.457Z,26
2023-05-10T02:39:40.218Z,23
2023-05-10T02:42:10.681Z,20
2023-05-10T02:44:41.964Z,23
2023-05-10T02:47:12.614Z,20
2023-05-10T02:49:42.813Z,17
2023-05-10T02:52:13.101Z,26
2023-05-10T02:54:43.345Z,21
2023-05-10T02:57:13.856Z,24
2023-05-10T02:59:44.378Z,21
2023-05-10T03:02:15.000Z,19
2023-05-10T03:04:45.791Z,20
2023-05-10T03:07:16.795Z,20
2023-05-10T03:09:47.544Z,22
2023-05-10T03:12:18.028Z,20
2023-05-10T03:14:48.508Z,21
2023-05-10T03:17:18.878Z,19
2023-05-10T03:19:49.410Z,17
2023-05-10T03:22:20.028Z,20
2023-05-10T03:24:50.191Z,16
2023-05-10T03:27:20.675Z,21
2023-05-10T03:29:51.634Z,21
2023-05-10T03:32:21.773Z,20
2023-05-10T03:34:52.374Z,20
2023-05-10T03:37:22.739Z,20
2023-05-10T03:39:53.367Z,20
2023-05-10T03:42:23.563Z,23
2023-05-10T03:44:54.037Z,22
2023-05-10T03:47:24.165Z,24
2023-05-10T03:49:54.880Z,25
2023-05-10T03:52:25.483Z,23
2023-05-10T03:54:55.667Z,20
2023-05-10T03:57:26.363Z,24
2023-05-10T03:59:56.549Z,24
2023-05-10T04:02:27.128Z,23
2023-05-10T04:04:57.472Z,21
2023-05-10T04:07:28.512Z,22
2023-05-10T04:09:59.276Z,19
2023-05-10T04:12:29.947Z,25
2023-05-10T04:14:59.728Z,23
2023-05-10T04:17:30.524Z,29
2023-05-10T04:20:04.567Z,20
2023-05-10T04:22:35.278Z,24
2023-05-10T04:25:05.756Z,29
2023-05-10T04:27:35.982Z,32
2023-05-10T04:30:06.248Z,27
2023-05-10T04:32:36.515Z,27
2023-05-10T04:35:06.801Z,27
2023-05-10T04:37:37.234Z,28
2023-05-10T04:40:07.723Z,27
2023-05-10T04:42:37.988Z,31
2023-05-10T04:45:08.379Z,25
2023-05-10T04:47:38.933Z,24
2023-05-10T04:50:09.627Z,23
2023-05-10T04:52:40.388Z,28
2023-05-10T04:55:10.853Z,27
2023-05-10T04:57:39.743Z,30
2023-05-10T05:00:09.803Z,25
2023-05-10T05:02:40.298Z,26
2023-05-10T05:05:11.082Z,35
2023-05-10T05:07:41.605Z,23
2023-05-10T05:10:11.525Z,29
2023-05-10T05:12:41.428Z,28
2023-05-10T05:15:12.115Z,28
2023-05-10T05:17:42.341Z,28
2023-05-10T05:20:12.482Z,27
2023-05-10T05:22:42.780Z,28
2023-05-10T05:25:13.168Z,27
2023-05-10T05:27:44.120Z,26
2023-05-10T05:30:14.762Z,23
2023-05-10T05:32:45.112Z,25
2023-05-10T05:35:15.987Z,25
2023-05-10T05:37:46.860Z,28
2023-05-10T05:40:17.157Z,28
2023-05-10T05:42:48.282Z,26
2023-05-10T05:45:19.007Z,25
2023-05-10T05:47:49.474Z,23
2023-05-10T05:50:20.014Z,27
2023-05-10T05:52:50.408Z,24
2023-05-10T05:55:20.524Z,28
2023-05-10T05:57:50.739Z,27
2023-05-10T06:00:21.628Z,24
2023-05-10T06:02:51.864Z,23
2023-05-10T06:05:22.053Z,25
2023-05-10T06:07:52.748Z,26
2023-05-10T06:10:22.733Z,25
2023-05-10T06:12:54.009Z,30
2023-05-10T06:15:24.454Z,23
2023-05-10T06:17:54.774Z,23
2023-05-10T06:20:25.455Z,28
2023-05-10T06:22:56.037Z,20
2023-05-10T06:25:26.270Z,17
2023-05-10T06:27:56.991Z,23
2023-05-10T06:30:27.674Z,28
2023-05-10T06:32:57.722Z,23
2023-05-10T06:35:27.685Z,21
2023-05-10T06:37:58.508Z,21
2023-05-10T06:40:29.019Z,20
2023-05-10T06:42:59.954Z,22
2023-05-10T06:45:30.628Z,22
2023-05-10T06:48:01.053Z,19
2023-05-10T06:50:31.244Z,25
2023-05-10T06:53:01.626Z,23
2023-05-10T06:55:32.641Z,24
2023-05-10T06:58:03.074Z,23
2023-05-10T07:00:33.417Z,24
2023-05-10T07:03:04.540Z,26
2023-05-10T07:05:35.455Z,25
2023-05-10T07:08:05.804Z,24
2023-05-10T07:10:37.852Z,21
2023-05-10T07:13:08.652Z,23
2023-05-10T07:15:39.282Z,21
2023-05-10T07:18:10.126Z,23
2023-05-10T07:20:43.460Z,24
2023-05-10T07:23:14.064Z,20
2023-05-10T07:25:44.162Z,20
2023-05-10T07:28:14.691Z,20
2023-05-10T07:30:45.292Z,21
2023-05-10T07:33:16.151Z,19
2023-05-10T07:35:46.799Z,17
2023-05-10T07:38:21.983Z,12
2023-05-10T07:40:52.560Z,15
2023-05-10T07:43:23.947Z,19
2023-05-10T07:45:58.143Z,14
2023-05-10T07:48:28.519Z,19
2023-05-10T07:50:59.552Z,17
2023-05-10T07:53:33.723Z,16
2023-05-10T07:56:14.839Z,12
2023-05-10T07:58:45.340Z,15
2023-05-10T08:01:15.417Z,16
2023-05-10T08:03:46.738Z,16
2023-05-10T08:06:21.753Z,10
2023-05-10T08:08:53.794Z,18
2023-05-10T08:11:28.249Z,16
2023-05-10T08:13:58.368Z,17
2023-05-10T08:16:28.897Z,19
2023-05-10T08:18:59.891Z,16
2023-05-10T08:21:34.066Z,16
2023-05-10T08:24:04.836Z,15
2023-05-10T08:26:35.251Z,19
2023-05-10T08:29:05.671Z,15
2023-05-10T08:31:36.337Z,20
2023-05-10T08:34:13.316Z,16
2023-05-10T08:36:43.069Z,19
2023-05-10T08:39:19.424Z,16
2023-05-10T08:41:43.960Z,23
2023-05-10T08:44:14.510Z,19
2023-05-10T08:46:47.757Z,19
2023-05-10T08:49:18.193Z,13
2023-05-10T08:51:48.406Z,17
2023-05-10T08:54:18.843Z,17
2023-05-10T08:56:50.052Z,15
2023-05-10T08:59:20.892Z,18
2023-05-10T09:01:50.037Z,23
2023-05-10T09:04:22.357Z,13
2023-05-10T09:06:52.777Z,17
2023-05-10T09:09:23.324Z,12
2023-05-10T09:11:55.150Z,10
2023-05-10T09:14:26.052Z,16
2023-05-10T09:16:56.695Z,16
2023-05-10T09:19:27.195Z,15
2023-05-10T09:21:57.494Z,23
2023-05-10T09:24:27.987Z,15
2023-05-10T09:26:58.412Z,16
2023-05-10T09:29:32.460Z,14
2023-05-10T09:32:05.550Z,12
2023-05-10T09:34:35.860Z,16
2023-05-10T09:37:06.604Z,15
2023-05-10T09:39:37.128Z,12
2023-05-10T09:42:13.069Z,12
2023-05-10T09:44:43.698Z,12
2023-05-10T09:47:16.921Z,16
2023-05-10T09:49:46.738Z,12
2023-05-10T09:52:18.673Z,15
2023-05-10T09:55:01.610Z,12
2023-05-10T09:57:38.431Z,10
2023-05-10T10:00:09.273Z,16
2023-05-10T10:02:39.829Z,19
2023-05-10T10:05:13.632Z,17
2023-05-10T10:07:46.090Z,13
2023-05-10T10:10:17.102Z,16
2023-05-10T10:12:48.240Z,13
2023-05-10T10:15:19.328Z,14
2023-05-10T10:17:49.769Z,17
2023-05-10T10:20:20.931Z,17
2023-05-10T10:22:54.480Z,12
2023-05-10T10:25:24.966Z,15
2023-05-10T10:27:55.079Z,17
2023-05-10T10:30:25.777Z,13
2023-05-10T10:32:57.802Z,16
2023-05-10T10:35:26.834Z,24
2023-05-10T10:37:59.287Z,13
2023-05-10T10:40:31.381Z,17
2023-05-10T10:43:00.798Z,15
2023-05-10T10:45:32.544Z,17
2023-05-10T10:48:03.412Z,16
2023-05-10T10:50:33.553Z,16
2023-05-10T10:53:04.394Z,16
2023-05-10T10:55:37.952Z,12
2023-05-10T10:58:09.135Z,16
2023-05-10T11:00:40.013Z,13
2023-05-10T11:03:10.215Z,14
2023-05-10T11:05:42.677Z,14
2023-05-10T11:08:13.567Z,13
2023-05-10T11:10:44.360Z,15
2023-05-10T11:13:14.519Z,17
2023-05-10T11:15:44.861Z,19
2023-05-10T11:18:15.076Z,13
2023-05-10T11:20:45.497Z,17
2023-05-10T11:23:15.953Z,13
2023-05-10T11:25:46.442Z,15
2023-05-10T11:28:16.984Z,12
2023-05-10T11:30:49.917Z,16
2023-05-10T11:33:23.620Z,13
2023-05-10T11:35:55.274Z,15
2023-05-10T11:38:27.254Z,20
2023-05-10T11:40:59.042Z,16
2023-05-10T11:43:29.336Z,15
2023-05-10T11:46:00.061Z,15
2023-05-10T11:48:30.773Z,17
2023-05-10T11:51:01.148Z,15
2023-05-10T11:53:31.594Z,12
2023-05-10T11:56:02.709Z,12
2023-05-10T11:58:33.284Z,15
2023-05-10T12:01:08.057Z,8
2023-05-10T12:03:38.358Z,13
2023-05-10T12:06:09.213Z,16
2023-05-10T12:08:41.240Z,12
2023-05-10T12:11:11.748Z,12
2023-05-10T12:13:42.334Z,16
2023-05-10T12:16:15.098Z,17
2023-05-10T12:18:45.079Z,17
2023-05-10T12:21:16.755Z,13
2023-05-10T12:23:49.610Z,15
2023-05-10T12:26:19.608Z,13
2023-05-10T12:28:50.186Z,13
2023-05-10T12:31:20.773Z,20
2023-05-10T12:33:50.937Z,16
2023-05-10T12:36:21.549Z,11
2023-05-10T12:38:56.349Z,13
2023-05-10T12:41:26.888Z,13
2023-05-10T12:43:59.609Z,15
2023-05-10T12:46:30.293Z,12
2023-05-10T12:49:08.832Z,12
2023-05-10T12:51:31.352Z,11
2023-05-10T12:54:02.008Z,10
2023-05-10T12:56:33.237Z,14
2023-05-10T12:59:03.830Z,12
2023-05-10T13:01:34.416Z,13
2023-05-10T13:04:04.916Z,13
2023-05-10T13:06:35.027Z,13
2023-05-10T13:09:04.805Z,12
2023-05-10T13:11:35.426Z,15
2023-05-10T13:14:06.181Z,12
2023-05-10T13:16:41.136Z,12
2023-05-10T13:19:17.385Z,12
2023-05-10T13:21:51.507Z,8
2023-05-10T13:24:25.371Z,13
2023-05-10T13:26:56.592Z,11
2023-05-10T13:29:27.437Z,13
2023-05-10T13:31:57.499Z,11
2023-05-10T13:34:28.260Z,13
2023-05-10T13:36:58.808Z,10
2023-05-10T13:39:28.846Z,12
2023-05-10T13:41:58.940Z,11
2023-05-10T13:44:32.491Z,15
2023-05-10T13:47:05.212Z,12
2023-05-10T13:52:22.713Z,4
2023-05-10T13:54:52.623Z,12
2023-05-10T13:57:30.642Z,8
2023-05-10T14:00:00.558Z,11
2023-05-10T14:02:33.590Z,12
2023-05-10T14:07:40.044Z,9
2023-05-10T14:10:12.947Z,9
2023-05-10T14:12:44.419Z,12
2023-05-10T14:15:26.589Z,4
2023-05-10T14:17:58.372Z,12
2023-05-10T14:20:27.672Z,12
2023-05-10T14:22:57.964Z,9
2023-05-10T14:25:27.966Z,11
2023-05-10T14:27:58.095Z,12
2023-05-10T14:30:28.483Z,11
2023-05-10T14:32:58.862Z,9
2023-05-10T14:35:29.158Z,16
2023-05-10T14:37:59.276Z,11
2023-05-10T14:40:29.088Z,12
2023-05-10T14:43:00.230Z,12
2023-05-10T14:45:30.215Z,12
2023-05-10T14:48:01.896Z,12
2023-05-10T14:50:36.785Z,13
2023-05-10T14:53:08.862Z,12
2023-05-10T14:55:38.884Z,11
2023-05-10T14:58:09.070Z,11
2023-05-10T15:00:39.927Z,8
2023-05-10T15:03:20.807Z,10
2023-05-10T15:05:52.462Z,8
2023-05-10T15:08:22.393Z,8
2023-05-10T15:10:56.501Z,6
2023-05-10T15:13:26.913Z,11
2023-05-10T15:15:57.739Z,12
2023-05-10T15:18:29.716Z,13
2023-05-10T15:20:59.964Z,12
2023-05-10T15:23:32.182Z,8
2023-05-10T15:26:02.331Z,12
2023-05-10T15:28:35.544Z,12
2023-05-10T15:31:12.614Z,8
2023-05-10T15:33:42.939Z,12
2023-05-10T15:36:13.172Z,8
2023-05-10T15:38:47.495Z,8
2023-05-10T15:41:23.894Z,6
2023-05-10T15:43:54.082Z,12
2023-05-10T15:46:24.299Z,11
2023-05-10T15:48:56.936Z,11
2023-05-10T15:51:25.751Z,9
2023-05-10T15:54:06.234Z,8
2023-05-10T15:56:27.509Z,11
2023-05-10T15:58:57.561Z,8
2023-05-10T16:01:27.717Z,12
2023-05-10T16:03:58.020Z,11
2023-05-10T16:06:28.513Z,10
2023-05-10T16:08:58.967Z,9
2023-05-10T16:14:03.210Z,8
2023-05-10T16:16:34.809Z,10
2023-05-10T16:19:06.877Z,12
2023-05-10T16:21:37.923Z,8
2023-05-10T16:24:10.178Z,11
2023-05-10T16:26:50.451Z,8
2023-05-10T16:29:21.748Z,12
2023-05-10T16:31:53.151Z,13
2023-05-10T16:34:24.273Z,12
2023-05-10T16:36:57.181Z,12
2023-05-10T16:39:36.146Z,9
2023-05-10T16:42:06.575Z,13
2023-05-10T16:44:42.028Z,9
2023-05-10T16:47:12.339Z,15
2023-05-10T16:49:42.939Z,12
2023-05-10T16:52:13.355Z,11
2023-05-10T16:54:43.500Z,13
2023-05-10T16:57:17.257Z,12
2023-05-10T16:59:47.678Z,9
2023-05-10T17:02:18.128Z,13
2023-05-10T17:04:48.681Z,13
2023-05-10T17:07:18.540Z,15
2023-05-10T17:09:51.533Z,18
2023-05-10T17:12:22.226Z,15
2023-05-10T17:14:52.286Z,15
2023-05-10T17:17:24.574Z,13
2023-05-10T17:19:59.138Z,12
2023-05-10T17:22:29.761Z,12
2023-05-10T17:25:01.070Z,13
2023-05-10T17:27:34.430Z,12
2023-05-10T17:30:04.598Z,15
2023-05-10T17:32:34.748Z,11
2023-05-10T17:35:08.797Z,12
2023-05-10T17:37:39.346Z,12
2023-05-10T17:40:11.830Z,11
2023-05-10T17:42:42.312Z,16
2023-05-10T17:45:12.660Z,13
2023-05-10T17:47:43.324Z,19
2023-05-10T17:50:15.756Z,13
2023-05-10T17:52:46.288Z,15
2023-05-10T17:55:16.896Z,16
2023-05-10T17:57:50.607Z,16
2023-05-10T18:00:19.712Z,17
2023-05-10T18:02:50.180Z,13
2023-05-10T18:05:24.569Z,12
2023-05-10T18:07:54.676Z,19
2023-05-10T18:10:24.621Z,13
2023-05-10T18:12:55.081Z,16
2023-05-10T18:15:26.400Z,16
2023-05-10T18:17:58.761Z,13
2023-05-10T18:20:29.108Z,13
2023-05-10T18:23:03.666Z,14
2023-05-10T18:25:33.912Z,20
2023-05-10T18:28:04.509Z,16
2023-05-10T18:30:35.073Z,13
2023-05-10T18:33:13.165Z,12
2023-05-10T18:35:50.003Z,16
2023-05-10T18:38:28.482Z,12
2023-05-10T18:40:58.785Z,13
2023-05-10T18:43:29.182Z,13
2023-05-10T18:45:59.692Z,12
2023-05-10T18:48:30.124Z,21
2023-05-10T18:51:01.227Z,20
2023-05-10T18:53:31.777Z,16
2023-05-10T18:56:00.479Z,15
2023-05-10T18:58:34.908Z,12
2023-05-10T19:01:06.518Z,16
2023-05-10T19:03:37.181Z,13
2023-05-10T19:06:07.352Z,19
2023-05-10T19:08:38.060Z,15
2023-05-10T19:11:08.625Z,17
2023-05-10T19:13:45.383Z,16
2023-05-10T19:16:20.069Z,20
2023-05-10T19:18:52.443Z,20
2023-05-10T19:21:24.160Z,16
2023-05-10T19:23:54.651Z,13
2023-05-10T19:26:26.150Z,16
2023-05-10T19:28:58.192Z,16
2023-05-10T19:31:30.633Z,16
2023-05-10T19:34:01.209Z,14
2023-05-10T19:36:35.046Z,20
2023-05-10T19:39:09.382Z,13
2023-05-10T19:41:45.031Z,10
2023-05-10T19:44:15.135Z,16
2023-05-10T19:46:45.634Z,20
2023-05-10T19:49:16.827Z,16
2023-05-10T19:51:49.272Z,13
2023-05-10T19:54:19.781Z,15
2023-05-10T19:56:51.841Z,12
2023-05-10T19:59:23.728Z,19
2023-05-10T20:01:54.533Z,16
2023-05-10T20:04:27.830Z,16
2023-05-10T20:06:58.803Z,15
2023-05-10T20:09:29.738Z,13
2023-05-10T20:12:03.318Z,15
2023-05-10T20:14:37.444Z,16
2023-05-10T20:17:11.119Z,20
2023-05-10T20:19:41.370Z,13
2023-05-10T20:22:16.257Z,13
2023-05-10T20:24:47.081Z,13
2023-05-10T20:27:18.796Z,20
2023-05-10T20:29:49.558Z,20
2023-05-10T20:32:19.464Z,19
2023-05-10T20:34:53.310Z,16
2023-05-10T20:37:32.962Z,13
2023-05-10T20:40:03.319Z,13
2023-05-10T20:42:35.022Z,17
2023-05-10T20:45:05.609Z,13
2023-05-10T20:47:40.059Z,19
2023-05-10T20:50:13.862Z,15
2023-05-10T20:52:50.099Z,16
2023-05-10T20:55:23.880Z,16
2023-05-10T20:57:55.922Z,12
2023-05-10T21:00:26.585Z,12
2023-05-10T21:02:57.161Z,15
2023-05-10T21:05:28.124Z,16
2023-05-10T21:08:00.143Z,16
2023-05-10T21:10:30.405Z,16
2023-05-10T21:13:00.993Z,13
2023-05-10T21:15:30.440Z,16
2023-05-10T21:18:02.469Z,14
2023-05-10T21:20:36.616Z,10
2023-05-10T21:23:11.039Z,14
2023-05-10T21:25:41.499Z,23
2023-05-10T21:28:11.765Z,28
2023-05-10T21:30:42.031Z,13
2023-05-10T21:33:12.754Z,12
2023-05-10T21:35:43.251Z,20
2023-05-10T21:38:13.653Z,9
2023-05-10T21:40:44.632Z,14
2023-05-10T21:43:15.358Z,15
2023-05-10T21:45:45.723Z,16
2023-05-10T21:48:20.598Z,16
2023-05-10T21:50:51.440Z,13
2023-05-10T21:53:22.571Z,14
2023-05-10T21:55:57.041Z,16
2023-05-10T21:58:33.488Z,16
2023-05-10T22:01:09.275Z,11
2023-05-10T22:03:40.171Z,16
2023-05-10T22:06:10.509Z,18
2023-05-10T22:08:41.245Z,12
2023-05-10T22:11:11.664Z,13
2023-05-10T22:13:42.141Z,13
2023-05-10T22:16:12.719Z,15
2023-05-10T22:18:43.209Z,15
2023-05-10T22:21:14.328Z,15
2023-05-10T22:23:45.204Z,15
2023-05-10T22:26:15.812Z,15
2023-05-10T22:28:46.879Z,16
2023-05-10T22:31:17.760Z,15
2023-05-10T22:33:48.426Z,17
2023-05-10T22:36:18.958Z,12
2023-05-10T22:38:49.493Z,12
2023-05-10T22:41:20.455Z,15
2023-05-10T22:43:51.690Z,14
2023-05-10T22:46:22.560Z,12
2023-05-10T22:48:53.241Z,16
2023-05-10T22:51:22.410Z,16
2023-05-10T22:53:53.013Z,12
2023-05-10T22:56:23.648Z,13
2023-05-10T22:58:54.456Z,19
2023-05-10T23:01:25.744Z,13
2023-05-10T23:03:56.548Z,12
2023-05-10T23:06:27.304Z,8
2023-05-10T23:08:58.283Z,12
2023-05-10T23:11:28.978Z,12
2023-05-10T23:13:59.681Z,11
2023-05-10T23:16:30.797Z,12
2023-05-10T23:19:01.354Z,15
2023-05-10T23:21:32.355Z,15
2023-05-10T23:24:03.163Z,16
2023-05-10T23:26:33.625Z,12
2023-05-10T23:29:04.358Z,13
2023-05-10T23:31:34.841Z,12
2023-05-10T23:34:05.681Z,15
2023-05-10T23:36:36.333Z,13
2023-05-10T23:39:06.950Z,13
2023-05-10T23:41:37.546Z,12
2023-05-10T23:44:08.221Z,16
2023-05-10T23:46:38.740Z,12
2023-05-10T23:49:09.575Z,11
2023-05-10T23:51:40.029Z,13
2023-05-10T23:54:10.799Z,12
2023-05-10T23:56:41.426Z,17
2023-05-10T23:59:11.586Z,16
